Terminal Aerodrome Forecast
Issued by NWS Sioux Falls, SD

Home | Current Version | Previous Version | Text Only | Print | Product List | Glossary On
Versions: 1 2 3 4 5 6 7 8 9 10 11 12 13 14 15 16 17 18
000
FTUS43 KFSD 051730
TAFFSD
TAF
KFSD 051730Z 0518/0618 18018G25KT P6SM FEW050
     FM060100 16014G20KT P6SM SCT060 BKN200
     FM060700 18014KT 4SM TSRA OVC030CB
     FM061100 02010KT 6SM SHRA OVC020
     FM061400 35015G22KT P6SM OVC030
     FM061600 35018G25KT P6SM SCT040 BKN100=

USA.gov is the U.S. government's official web portal to all federal, state and local government web resources and services.